sensor_id;sensor_type;location;lat;lon;timestamp;temperature;humidity
23691;DHT22;43867;50.836;4.364;2022-08-05T00:00:30;20.20;99.90
23691;DHT22;43867;50.836;4.364;2022-08-05T00:02:55;20.20;99.90
23691;DHT22;43867;50.836;4.364;2022-08-05T00:05:21;20.20;99.90
23691;DHT22;43867;50.836;4.364;2022-08-05T00:07:46;20.40;99.90
23691;DHT22;43867;50.836;4.364;2022-08-05T00:10:12;20.40;99.90
23691;DHT22;43867;50.836;4.364;2022-08-05T00:12:38;20.30;99.90
23691;DHT22;43867;50.836;4.364;2022-08-05T00:15:03;20.40;99.90
23691;DHT22;43867;50.836;4.364;2022-08-05T00:17:29;20.50;99.90
23691;DHT22;43867;50.836;4.364;2022-08-05T00:19:55;20.20;99.90
23691;DHT22;43867;50.836;4.364;2022-08-05T00:22:20;20.10;99.90
23691;DHT22;43867;50.836;4.364;2022-08-05T00:24:46;19.90;99.90
23691;DHT22;43867;50.836;4.364;2022-08-05T00:27:11;19.70;99.90
23691;DHT22;43867;50.836;4.364;2022-08-05T00:29:37;19.50;99.90
23691;DHT22;43867;50.836;4.364;2022-08-05T00:32:02;19.30;99.90
23691;DHT22;43867;50.836;4.364;2022-08-05T00:34:31;19.40;99.90
23691;DHT22;43867;50.836;4.364;2022-08-05T00:36:56;19.40;99.90
23691;DHT22;43867;50.836;4.364;2022-08-05T00:39:22;19.30;99.90
23691;DHT22;43867;50.836;4.364;2022-08-05T00:41:47;19.30;99.90
23691;DHT22;43867;50.836;4.364;2022-08-05T00:44:13;19.40;99.90
23691;DHT22;43867;50.836;4.364;2022-08-05T00:46:39;19.30;99.90
23691;DHT22;43867;50.836;4.364;2022-08-05T00:49:04;19.30;99.90
23691;DHT22;43867;50.836;4.364;2022-08-05T00:51:30;19.30;99.90
23691;DHT22;43867;50.836;4.364;2022-08-05T00:53:55;19.40;99.90
23691;DHT22;43867;50.836;4.364;2022-08-05T00:56:21;19.40;99.90
23691;DHT22;43867;50.836;4.364;2022-08-05T00:58:47;19.40;99.90
23691;DHT22;43867;50.836;4.364;2022-08-05T01:01:12;19.50;99.90
23691;DHT22;43867;50.836;4.364;2022-08-05T01:03:40;19.60;99.90
23691;DHT22;43867;50.836;4.364;2022-08-05T01:06:06;19.80;99.90
23691;DHT22;43867;50.836;4.364;2022-08-05T01:08:32;19.90;99.90
23691;DHT22;43867;50.836;4.364;2022-08-05T01:10:59;19.70;99.90
23691;DHT22;43867;50.836;4.364;2022-08-05T01:16:02;19.20;99.90
23691;DHT22;43867;50.836;4.364;2022-08-05T01:18:30;19.00;99.90
23691;DHT22;43867;50.836;4.364;2022-08-05T01:28:35;19.00;99.90
23691;DHT22;43867;50.836;4.364;2022-08-05T01:31:03;18.90;99.90
23691;DHT22;43867;50.836;4.364;2022-08-05T01:33:33;19.00;99.90
23691;DHT22;43867;50.836;4.364;2022-08-05T01:36:00;19.00;99.90
23691;DHT22;43867;50.836;4.364;2022-08-05T01:38:28;19.00;99.90
23691;DHT22;43867;50.836;4.364;2022-08-05T01:40:57;19.00;99.90
23691;DHT22;43867;50.836;4.364;2022-08-05T01:43:23;19.20;99.90
23691;DHT22;43867;50.836;4.364;2022-08-05T01:45:51;19.10;99.90
23691;DHT22;43867;50.836;4.364;2022-08-05T01:48:17;19.10;99.90
23691;DHT22;43867;50.836;4.364;2022-08-05T01:50:43;19.20;99.90
23691;DHT22;43867;50.836;4.364;2022-08-05T01:53:11;19.30;99.90
23691;DHT22;43867;50.836;4.364;2022-08-05T01:55:38;19.40;99.90
23691;DHT22;43867;50.836;4.364;2022-08-05T01:58:04;19.40;99.90
23691;DHT22;43867;50.836;4.364;2022-08-05T02:00:31;19.40;99.90
23691;DHT22;43867;50.836;4.364;2022-08-05T02:02:59;19.40;99.90
23691;DHT22;43867;50.836;4.364;2022-08-05T02:05:27;19.50;99.90
23691;DHT22;43867;50.836;4.364;2022-08-05T02:07:55;19.60;99.90
23691;DHT22;43867;50.836;4.364;2022-08-05T02:10:20;19.70;99.90
23691;DHT22;43867;50.836;4.364;2022-08-05T02:12:50;19.60;99.90
23691;DHT22;43867;50.836;4.364;2022-08-05T02:15:25;19.60;99.90
23691;DHT22;43867;50.836;4.364;2022-08-05T02:17:57;19.60;99.90
23691;DHT22;43867;50.836;4.364;2022-08-05T02:20:24;19.60;99.90
23691;DHT22;43867;50.836;4.364;2022-08-05T02:22:54;19.60;99.90
23691;DHT22;43867;50.836;4.364;2022-08-05T02:25:21;19.50;99.90
23691;DHT22;43867;50.836;4.364;2022-08-05T02:27:48;19.60;99.90
23691;DHT22;43867;50.836;4.364;2022-08-05T02:30:15;19.60;99.90
23691;DHT22;43867;50.836;4.364;2022-08-05T02:32:42;19.60;99.90
23691;DHT22;43867;50.836;4.364;2022-08-05T02:35:11;19.90;99.90
23691;DHT22;43867;50.836;4.364;2022-08-05T02:37:38;19.90;99.90
23691;DHT22;43867;50.836;4.364;2022-08-05T02:40:05;19.80;99.90
23691;DHT22;43867;50.836;4.364;2022-08-05T02:42:31;19.90;99.90
23691;DHT22;43867;50.836;4.364;2022-08-05T02:44:58;20.00;99.90
23691;DHT22;43867;50.836;4.364;2022-08-05T02:47:24;19.70;99.90
23691;DHT22;43867;50.836;4.364;2022-08-05T02:49:51;19.60;99.90
23691;DHT22;43867;50.836;4.364;2022-08-05T02:52:17;19.50;99.90
23691;DHT22;43867;50.836;4.364;2022-08-05T02:54:43;19.40;99.90
23691;DHT22;43867;50.836;4.364;2022-08-05T02:57:10;19.60;99.90
23691;DHT22;43867;50.836;4.364;2022-08-05T02:59:39;19.50;99.90
23691;DHT22;43867;50.836;4.364;2022-08-05T03:02:05;19.30;99.90
23691;DHT22;43867;50.836;4.364;2022-08-05T03:04:31;19.40;99.90
23691;DHT22;43867;50.836;4.364;2022-08-05T03:06:57;19.40;99.90
23691;DHT22;43867;50.836;4.364;2022-08-05T03:09:23;19.50;99.90
23691;DHT22;43867;50.836;4.364;2022-08-05T03:11:48;19.50;99.90
23691;DHT22;43867;50.836;4.364;2022-08-05T03:14:15;19.30;99.90
23691;DHT22;43867;50.836;4.364;2022-08-05T03:16:41;19.20;99.90
23691;DHT22;43867;50.836;4.364;2022-08-05T03:19:06;19.20;99.90
23691;DHT22;43867;50.836;4.364;2022-08-05T03:21:32;19.30;99.90
23691;DHT22;43867;50.836;4.364;2022-08-05T03:23:58;19.20;99.90
23691;DHT22;43867;50.836;4.364;2022-08-05T03:26:23;19.40;99.90
23691;DHT22;43867;50.836;4.364;2022-08-05T03:28:49;19.40;99.90
23691;DHT22;43867;50.836;4.364;2022-08-05T03:31:15;19.50;99.90
23691;DHT22;43867;50.836;4.364;2022-08-05T03:33:40;19.60;99.90
23691;DHT22;43867;50.836;4.364;2022-08-05T03:36:07;19.70;99.90
23691;DHT22;43867;50.836;4.364;2022-08-05T03:38:39;19.70;99.90
23691;DHT22;43867;50.836;4.364;2022-08-05T03:41:04;19.80;99.90
23691;DHT22;43867;50.836;4.364;2022-08-05T03:43:30;19.50;99.90
23691;DHT22;43867;50.836;4.364;2022-08-05T03:45:55;19.40;99.90
23691;DHT22;43867;50.836;4.364;2022-08-05T03:48:21;19.50;99.90
23691;DHT22;43867;50.836;4.364;2022-08-05T03:50:50;19.60;99.90
23691;DHT22;43867;50.836;4.364;2022-08-05T03:55:56;19.50;99.90
23691;DHT22;43867;50.836;4.364;2022-08-05T03:58:23;19.50;99.90
23691;DHT22;43867;50.836;4.364;2022-08-05T04:00:52;19.40;99.90
23691;DHT22;43867;50.836;4.364;2022-08-05T04:03:18;19.50;99.90
23691;DHT22;43867;50.836;4.364;2022-08-05T04:05:44;19.40;99.90
23691;DHT22;43867;50.836;4.364;2022-08-05T04:08:10;19.40;99.90
23691;DHT22;43867;50.836;4.364;2022-08-05T04:10:36;19.40;99.90
23691;DHT22;43867;50.836;4.364;2022-08-05T04:13:02;19.70;99.90
23691;DHT22;43867;50.836;4.364;2022-08-05T04:15:27;19.80;99.90
23691;DHT22;43867;50.836;4.364;2022-08-05T04:17:53;19.70;99.90
23691;DHT22;43867;50.836;4.364;2022-08-05T04:20:20;19.80;99.90
23691;DHT22;43867;50.836;4.364;2022-08-05T04:22:45;19.60;99.90
23691;DHT22;43867;50.836;4.364;2022-08-05T04:25:11;19.40;99.90
23691;DHT22;43867;50.836;4.364;2022-08-05T04:27:36;19.30;99.90
23691;DHT22;43867;50.836;4.364;2022-08-05T04:30:02;19.20;99.90
23691;DHT22;43867;50.836;4.364;2022-08-05T04:32:28;19.20;99.90
23691;DHT22;43867;50.836;4.364;2022-08-05T04:34:54;19.30;99.90
23691;DHT22;43867;50.836;4.364;2022-08-05T04:37:19;19.20;99.90
23691;DHT22;43867;50.836;4.364;2022-08-05T04:39:49;19.20;99.90
23691;DHT22;43867;50.836;4.364;2022-08-05T04:42:15;19.30;99.90
23691;DHT22;43867;50.836;4.364;2022-08-05T04:44:40;19.30;99.90
23691;DHT22;43867;50.836;4.364;2022-08-05T04:47:06;19.00;99.90
23691;DHT22;43867;50.836;4.364;2022-08-05T04:49:31;19.00;99.90
23691;DHT22;43867;50.836;4.364;2022-08-05T04:51:57;19.10;99.90
23691;DHT22;43867;50.836;4.364;2022-08-05T04:54:22;19.10;99.90
23691;DHT22;43867;50.836;4.364;2022-08-05T04:56:54;19.10;99.90
23691;DHT22;43867;50.836;4.364;2022-08-05T04:59:21;19.00;99.90
23691;DHT22;43867;50.836;4.364;2022-08-05T05:01:53;19.20;99.90
23691;DHT22;43867;50.836;4.364;2022-08-05T05:04:19;19.20;99.90
23691;DHT22;43867;50.836;4.364;2022-08-05T05:06:44;19.30;99.90
23691;DHT22;43867;50.836;4.364;2022-08-05T05:09:10;19.20;99.90
23691;DHT22;43867;50.836;4.364;2022-08-05T05:11:36;19.10;99.90
23691;DHT22;43867;50.836;4.364;2022-08-05T05:14:02;19.10;99.90
23691;DHT22;43867;50.836;4.364;2022-08-05T05:16:29;19.20;99.90
23691;DHT22;43867;50.836;4.364;2022-08-05T05:18:54;19.20;99.90
23691;DHT22;43867;50.836;4.364;2022-08-05T05:21:20;19.10;99.90
23691;DHT22;43867;50.836;4.364;2022-08-05T05:23:45;19.30;99.90
23691;DHT22;43867;50.836;4.364;2022-08-05T05:26:11;19.20;99.90
23691;DHT22;43867;50.836;4.364;2022-08-05T05:28:36;19.10;99.90
23691;DHT22;43867;50.836;4.364;2022-08-05T05:31:02;19.10;99.90
23691;DHT22;43867;50.836;4.364;2022-08-05T05:33:27;19.00;99.90
23691;DHT22;43867;50.836;4.364;2022-08-05T05:35:53;19.00;99.90
23691;DHT22;43867;50.836;4.364;2022-08-05T05:38:19;19.00;99.90
23691;DHT22;43867;50.836;4.364;2022-08-05T05:40:44;19.20;99.90
23691;DHT22;43867;50.836;4.364;2022-08-05T05:43:10;19.30;99.90
23691;DHT22;43867;50.836;4.364;2022-08-05T05:45:35;19.20;99.90
23691;DHT22;43867;50.836;4.364;2022-08-05T05:48:01;19.20;99.90
23691;DHT22;43867;50.836;4.364;2022-08-05T05:50:26;19.10;99.90
23691;DHT22;43867;50.836;4.364;2022-08-05T05:52:52;19.20;99.90
23691;DHT22;43867;50.836;4.364;2022-08-05T05:55:19;19.30;99.90
23691;DHT22;43867;50.836;4.364;2022-08-05T05:57:45;19.30;99.90
23691;DHT22;43867;50.836;4.364;2022-08-05T06:00:15;19.40;99.90
23691;DHT22;43867;50.836;4.364;2022-08-05T06:02:41;19.60;99.90
23691;DHT22;43867;50.836;4.364;2022-08-05T06:05:07;19.50;99.90
23691;DHT22;43867;50.836;4.364;2022-08-05T06:07:33;19.60;99.90
23691;DHT22;43867;50.836;4.364;2022-08-05T06:09:59;20.00;99.90
23691;DHT22;43867;50.836;4.364;2022-08-05T06:12:25;20.20;99.90
23691;DHT22;43867;50.836;4.364;2022-08-05T06:14:51;20.10;99.90
23691;DHT22;43867;50.836;4.364;2022-08-05T06:17:16;20.30;99.90
23691;DHT22;43867;50.836;4.364;2022-08-05T06:19:42;20.30;99.90
23691;DHT22;43867;50.836;4.364;2022-08-05T06:22:07;20.30;99.90
23691;DHT22;43867;50.836;4.364;2022-08-05T06:24:33;20.40;99.90
23691;DHT22;43867;50.836;4.364;2022-08-05T06:26:59;20.50;99.90
23691;DHT22;43867;50.836;4.364;2022-08-05T06:29:25;20.40;99.90
23691;DHT22;43867;50.836;4.364;2022-08-05T06:31:51;20.50;99.90
23691;DHT22;43867;50.836;4.364;2022-08-05T06:34:16;20.70;99.90
23691;DHT22;43867;50.836;4.364;2022-08-05T06:36:42;20.20;99.90
23691;DHT22;43867;50.836;4.364;2022-08-05T06:39:08;20.10;99.90
23691;DHT22;43867;50.836;4.364;2022-08-05T06:41:33;19.90;99.90
23691;DHT22;43867;50.836;4.364;2022-08-05T06:43:59;19.80;99.90
23691;DHT22;43867;50.836;4.364;2022-08-05T06:46:24;19.80;99.90
23691;DHT22;43867;50.836;4.364;2022-08-05T06:48:51;19.80;99.90
23691;DHT22;43867;50.836;4.364;2022-08-05T06:51:16;20.10;99.90
23691;DHT22;43867;50.836;4.364;2022-08-05T06:53:42;20.10;99.90
23691;DHT22;43867;50.836;4.364;2022-08-05T06:56:08;20.10;99.90
23691;DHT22;43867;50.836;4.364;2022-08-05T06:58:33;20.50;99.90
23691;DHT22;43867;50.836;4.364;2022-08-05T07:01:00;20.50;99.90
23691;DHT22;43867;50.836;4.364;2022-08-05T07:03:26;20.40;99.90
23691;DHT22;43867;50.836;4.364;2022-08-05T07:05:53;20.60;99.90
23691;DHT22;43867;50.836;4.364;2022-08-05T07:08:19;21.00;99.90
23691;DHT22;43867;50.836;4.364;2022-08-05T07:10:46;21.60;99.90
23691;DHT22;43867;50.836;4.364;2022-08-05T07:13:12;21.50;99.90
23691;DHT22;43867;50.836;4.364;2022-08-05T07:15:56;21.00;99.90
23691;DHT22;43867;50.836;4.364;2022-08-05T07:18:40;21.00;99.90
23691;DHT22;43867;50.836;4.364;2022-08-05T07:21:06;21.30;99.90
23691;DHT22;43867;50.836;4.364;2022-08-05T07:23:32;21.60;99.90
23691;DHT22;43867;50.836;4.364;2022-08-05T07:25:57;21.60;99.90
23691;DHT22;43867;50.836;4.364;2022-08-05T07:28:24;21.50;99.90
23691;DHT22;43867;50.836;4.364;2022-08-05T07:30:50;21.80;99.90
23691;DHT22;43867;50.836;4.364;2022-08-05T07:33:16;21.90;99.90
23691;DHT22;43867;50.836;4.364;2022-08-05T07:35:41;21.90;99.90
23691;DHT22;43867;50.836;4.364;2022-08-05T07:38:07;22.20;99.90
23691;DHT22;43867;50.836;4.364;2022-08-05T07:40:33;22.40;99.90
23691;DHT22;43867;50.836;4.364;2022-08-05T07:42:58;22.10;99.90
23691;DHT22;43867;50.836;4.364;2022-08-05T07:45:24;21.80;99.90
23691;DHT22;43867;50.836;4.364;2022-08-05T07:47:50;21.60;99.90
23691;DHT22;43867;50.836;4.364;2022-08-05T07:50:15;21.40;99.90
23691;DHT22;43867;50.836;4.364;2022-08-05T07:52:41;21.30;99.90
23691;DHT22;43867;50.836;4.364;2022-08-05T07:55:10;21.50;99.90
23691;DHT22;43867;50.836;4.364;2022-08-05T07:57:36;21.60;99.90
23691;DHT22;43867;50.836;4.364;2022-08-05T08:00:05;22.00;99.90
23691;DHT22;43867;50.836;4.364;2022-08-05T08:02:30;22.10;99.90
23691;DHT22;43867;50.836;4.364;2022-08-05T08:04:56;22.60;99.90
23691;DHT22;43867;50.836;4.364;2022-08-05T08:07:21;23.10;99.90
23691;DHT22;43867;50.836;4.364;2022-08-05T08:09:47;22.90;99.90
23691;DHT22;43867;50.836;4.364;2022-08-05T08:12:14;23.60;99.90
23691;DHT22;43867;50.836;4.364;2022-08-05T08:14:40;23.90;99.90
23691;DHT22;43867;50.836;4.364;2022-08-05T08:17:05;24.00;99.90
23691;DHT22;43867;50.836;4.364;2022-08-05T08:19:35;24.10;99.90
23691;DHT22;43867;50.836;4.364;2022-08-05T08:22:01;24.10;99.90
23691;DHT22;43867;50.836;4.364;2022-08-05T08:24:26;24.30;99.90
23691;DHT22;43867;50.836;4.364;2022-08-05T08:26:52;25.00;99.90
23691;DHT22;43867;50.836;4.364;2022-08-05T08:29:17;25.10;99.90
23691;DHT22;43867;50.836;4.364;2022-08-05T08:31:43;25.70;99.90
23691;DHT22;43867;50.836;4.364;2022-08-05T08:34:08;25.90;98.70
23691;DHT22;43867;50.836;4.364;2022-08-05T08:36:34;26.30;99.10
23691;DHT22;43867;50.836;4.364;2022-08-05T08:38:59;26.30;97.30
23691;DHT22;43867;50.836;4.364;2022-08-05T08:41:25;25.90;97.00
23691;DHT22;43867;50.836;4.364;2022-08-05T08:43:51;25.50;97.40
23691;DHT22;43867;50.836;4.364;2022-08-05T08:46:19;25.20;98.40
23691;DHT22;43867;50.836;4.364;2022-08-05T08:48:45;25.10;98.20
23691;DHT22;43867;50.836;4.364;2022-08-05T08:51:11;24.90;99.00
23691;DHT22;43867;50.836;4.364;2022-08-05T08:53:37;25.50;97.80
23691;DHT22;43867;50.836;4.364;2022-08-05T08:56:04;25.30;96.20
23691;DHT22;43867;50.836;4.364;2022-08-05T08:58:29;24.90;97.50
23691;DHT22;43867;50.836;4.364;2022-08-05T09:00:55;24.60;98.40
23691;DHT22;43867;50.836;4.364;2022-08-05T09:03:21;23.60;99.90
23691;DHT22;43867;50.836;4.364;2022-08-05T09:05:47;23.80;99.90
23691;DHT22;43867;50.836;4.364;2022-08-05T09:08:13;24.40;99.90
23691;DHT22;43867;50.836;4.364;2022-08-05T09:10:41;24.60;99.60
23691;DHT22;43867;50.836;4.364;2022-08-05T09:13:12;24.10;99.70
23691;DHT22;43867;50.836;4.364;2022-08-05T09:15:38;24.00;99.20
23691;DHT22;43867;50.836;4.364;2022-08-05T09:18:07;23.80;99.90
23691;DHT22;43867;50.836;4.364;2022-08-05T09:20:34;24.60;99.10
23691;DHT22;43867;50.836;4.364;2022-08-05T09:23:12;25.20;96.90
23691;DHT22;43867;50.836;4.364;2022-08-05T09:25:40;25.00;96.50
23691;DHT22;43867;50.836;4.364;2022-08-05T09:28:10;25.20;95.30
23691;DHT22;43867;50.836;4.364;2022-08-05T09:30:36;24.80;95.60
23691;DHT22;43867;50.836;4.364;2022-08-05T09:33:02;24.10;96.50
23691;DHT22;43867;50.836;4.364;2022-08-05T09:35:28;24.00;97.50
23691;DHT22;43867;50.836;4.364;2022-08-05T09:37:54;23.60;97.10
23691;DHT22;43867;50.836;4.364;2022-08-05T09:40:31;23.20;98.00
23691;DHT22;43867;50.836;4.364;2022-08-05T09:42:57;23.40;98.50
23691;DHT22;43867;50.836;4.364;2022-08-05T09:45:33;23.70;97.00
23691;DHT22;43867;50.836;4.364;2022-08-05T09:48:00;24.00;96.40
23691;DHT22;43867;50.836;4.364;2022-08-05T09:50:47;24.50;96.00
23691;DHT22;43867;50.836;4.364;2022-08-05T09:53:12;24.80;95.10
23691;DHT22;43867;50.836;4.364;2022-08-05T09:55:38;25.20;92.00
23691;DHT22;43867;50.836;4.364;2022-08-05T09:58:10;25.10;86.10
23691;DHT22;43867;50.836;4.364;2022-08-05T10:00:36;24.50;88.50
23691;DHT22;43867;50.836;4.364;2022-08-05T10:03:09;24.40;86.70
23691;DHT22;43867;50.836;4.364;2022-08-05T10:05:36;24.00;89.90
23691;DHT22;43867;50.836;4.364;2022-08-05T10:08:03;23.90;91.90
23691;DHT22;43867;50.836;4.364;2022-08-05T10:10:35;24.30;91.50
23691;DHT22;43867;50.836;4.364;2022-08-05T10:13:01;24.50;90.20
23691;DHT22;43867;50.836;4.364;2022-08-05T10:15:29;24.80;86.60
23691;DHT22;43867;50.836;4.364;2022-08-05T10:21:00;24.30;89.70
23691;DHT22;43867;50.836;4.364;2022-08-05T10:25:59;24.40;78.90
23691;DHT22;43867;50.836;4.364;2022-08-05T10:28:25;24.40;78.30
23691;DHT22;43867;50.836;4.364;2022-08-05T10:30:51;24.20;80.60
23691;DHT22;43867;50.836;4.364;2022-08-05T10:33:18;24.30;82.40
23691;DHT22;43867;50.836;4.364;2022-08-05T10:35:44;24.50;83.80
23691;DHT22;43867;50.836;4.364;2022-08-05T10:38:10;24.80;79.90
23691;DHT22;43867;50.836;4.364;2022-08-05T10:40:43;24.20;81.20
23691;DHT22;43867;50.836;4.364;2022-08-05T10:45:56;23.90;78.90
23691;DHT22;43867;50.836;4.364;2022-08-05T10:48:33;23.90;74.40
23691;DHT22;43867;50.836;4.364;2022-08-05T10:51:03;24.20;74.30
23691;DHT22;43867;50.836;4.364;2022-08-05T10:53:31;24.00;77.00
23691;DHT22;43867;50.836;4.364;2022-08-05T10:56:01;24.20;78.00
23691;DHT22;43867;50.836;4.364;2022-08-05T10:58:27;24.40;75.50
23691;DHT22;43867;50.836;4.364;2022-08-05T11:00:53;24.30;74.00
23691;DHT22;43867;50.836;4.364;2022-08-05T11:03:19;24.10;76.30
23691;DHT22;43867;50.836;4.364;2022-08-05T11:08:29;24.20;77.00
23691;DHT22;43867;50.836;4.364;2022-08-05T11:10:55;24.50;76.00
23691;DHT22;43867;50.836;4.364;2022-08-05T11:13:38;24.80;72.20
23691;DHT22;43867;50.836;4.364;2022-08-05T11:16:19;25.00;68.90
23691;DHT22;43867;50.836;4.364;2022-08-05T11:18:45;25.00;68.70
23691;DHT22;43867;50.836;4.364;2022-08-05T11:21:29;24.80;69.40
23691;DHT22;43867;50.836;4.364;2022-08-05T11:23:55;24.70;67.30
23691;DHT22;43867;50.836;4.364;2022-08-05T11:26:26;24.80;67.50
23691;DHT22;43867;50.836;4.364;2022-08-05T11:28:52;24.70;67.30
23691;DHT22;43867;50.836;4.364;2022-08-05T11:31:19;24.70;67.40
23691;DHT22;43867;50.836;4.364;2022-08-05T11:36:11;23.90;72.50
23691;DHT22;43867;50.836;4.364;2022-08-05T11:41:13;24.20;74.20
23691;DHT22;43867;50.836;4.364;2022-08-05T11:43:58;24.50;74.60
23691;DHT22;43867;50.836;4.364;2022-08-05T11:46:28;24.60;74.00
23691;DHT22;43867;50.836;4.364;2022-08-05T11:48:54;24.70;73.40
23691;DHT22;43867;50.836;4.364;2022-08-05T11:51:20;24.80;71.30
23691;DHT22;43867;50.836;4.364;2022-08-05T11:53:46;24.60;70.70
23691;DHT22;43867;50.836;4.364;2022-08-05T11:56:12;24.30;73.00
23691;DHT22;43867;50.836;4.364;2022-08-05T11:58:38;24.40;72.00
23691;DHT22;43867;50.836;4.364;2022-08-05T12:01:05;24.30;73.10
23691;DHT22;43867;50.836;4.364;2022-08-05T12:03:41;24.20;74.50
23691;DHT22;43867;50.836;4.364;2022-08-05T12:06:08;24.00;74.90
23691;DHT22;43867;50.836;4.364;2022-08-05T12:08:43;24.00;78.00
23691;DHT22;43867;50.836;4.364;2022-08-05T12:11:10;23.90;77.30
23691;DHT22;43867;50.836;4.364;2022-08-05T12:16:18;23.90;77.60
23691;DHT22;43867;50.836;4.364;2022-08-05T12:18:47;24.20;77.20
23691;DHT22;43867;50.836;4.364;2022-08-05T12:21:13;24.00;76.30
23691;DHT22;43867;50.836;4.364;2022-08-05T12:23:59;23.90;76.30
23691;DHT22;43867;50.836;4.364;2022-08-05T12:28:57;24.00;75.30
23691;DHT22;43867;50.836;4.364;2022-08-05T12:31:25;24.20;74.10
23691;DHT22;43867;50.836;4.364;2022-08-05T12:33:57;24.20;71.50
23691;DHT22;43867;50.836;4.364;2022-08-05T12:36:26;24.20;70.70
23691;DHT22;43867;50.836;4.364;2022-08-05T12:38:55;23.70;71.20
23691;DHT22;43867;50.836;4.364;2022-08-05T12:41:21;23.60;70.70
23691;DHT22;43867;50.836;4.364;2022-08-05T12:43:53;23.80;70.20
23691;DHT22;43867;50.836;4.364;2022-08-05T12:46:23;23.90;69.30
23691;DHT22;43867;50.836;4.364;2022-08-05T12:54:09;24.10;68.40
23691;DHT22;43867;50.836;4.364;2022-08-05T12:56:39;24.40;67.40
23691;DHT22;43867;50.836;4.364;2022-08-05T12:59:12;24.40;64.80
23691;DHT22;43867;50.836;4.364;2022-08-05T13:01:38;24.60;62.30
23691;DHT22;43867;50.836;4.364;2022-08-05T13:04:04;24.10;61.00
23691;DHT22;43867;50.836;4.364;2022-08-05T13:06:30;24.30;60.20
23691;DHT22;43867;50.836;4.364;2022-08-05T13:08:55;24.40;59.00
23691;DHT22;43867;50.836;4.364;2022-08-05T13:11:22;24.60;58.80
23691;DHT22;43867;50.836;4.364;2022-08-05T13:13:48;24.60;58.20
23691;DHT22;43867;50.836;4.364;2022-08-05T13:16:14;24.60;57.30
23691;DHT22;43867;50.836;4.364;2022-08-05T13:18:49;24.40;57.00
23691;DHT22;43867;50.836;4.364;2022-08-05T13:21:15;24.50;56.90
23691;DHT22;43867;50.836;4.364;2022-08-05T13:23:40;24.50;56.40
23691;DHT22;43867;50.836;4.364;2022-08-05T13:26:06;24.50;56.80
23691;DHT22;43867;50.836;4.364;2022-08-05T13:28:31;24.60;56.60
23691;DHT22;43867;50.836;4.364;2022-08-05T13:30:57;24.60;56.50
23691;DHT22;43867;50.836;4.364;2022-08-05T13:33:22;24.60;56.30
23691;DHT22;43867;50.836;4.364;2022-08-05T13:35:48;24.50;56.40
23691;DHT22;43867;50.836;4.364;2022-08-05T13:38:14;24.80;55.40
23691;DHT22;43867;50.836;4.364;2022-08-05T13:40:39;24.60;54.90
23691;DHT22;43867;50.836;4.364;2022-08-05T13:43:05;24.30;55.80
23691;DHT22;43867;50.836;4.364;2022-08-05T13:45:31;24.30;55.70
23691;DHT22;43867;50.836;4.364;2022-08-05T13:47:57;24.40;55.20
23691;DHT22;43867;50.836;4.364;2022-08-05T13:50:23;24.60;55.20
23691;DHT22;43867;50.836;4.364;2022-08-05T13:52:48;24.50;55.50
23691;DHT22;43867;50.836;4.364;2022-08-05T13:55:14;24.10;56.30
23691;DHT22;43867;50.836;4.364;2022-08-05T13:57:40;24.10;56.10
23691;DHT22;43867;50.836;4.364;2022-08-05T14:00:05;24.10;56.60
23691;DHT22;43867;50.836;4.364;2022-08-05T14:02:31;24.50;55.70
23691;DHT22;43867;50.836;4.364;2022-08-05T14:04:57;24.50;55.00
23691;DHT22;43867;50.836;4.364;2022-08-05T14:07:40;24.40;54.70
23691;DHT22;43867;50.836;4.364;2022-08-05T14:10:16;24.60;54.50
23691;DHT22;43867;50.836;4.364;2022-08-05T14:12:42;24.50;55.80
23691;DHT22;43867;50.836;4.364;2022-08-05T14:15:08;25.00;54.90
23691;DHT22;43867;50.836;4.364;2022-08-05T14:17:33;25.20;54.30
23691;DHT22;43867;50.836;4.364;2022-08-05T14:19:59;24.90;54.60
23691;DHT22;43867;50.836;4.364;2022-08-05T14:22:25;24.60;55.20
23691;DHT22;43867;50.836;4.364;2022-08-05T14:24:51;24.50;55.60
23691;DHT22;43867;50.836;4.364;2022-08-05T14:27:16;24.40;56.60
23691;DHT22;43867;50.836;4.364;2022-08-05T14:29:48;24.30;56.20
23691;DHT22;43867;50.836;4.364;2022-08-05T14:32:14;24.10;55.40
23691;DHT22;43867;50.836;4.364;2022-08-05T14:34:39;23.70;56.40
23691;DHT22;43867;50.836;4.364;2022-08-05T14:37:05;23.80;55.80
23691;DHT22;43867;50.836;4.364;2022-08-05T14:39:31;23.50;55.70
23691;DHT22;43867;50.836;4.364;2022-08-05T14:41:57;23.30;56.60
23691;DHT22;43867;50.836;4.364;2022-08-05T14:44:22;23.60;56.00
23691;DHT22;43867;50.836;4.364;2022-08-05T14:46:48;23.90;55.00
23691;DHT22;43867;50.836;4.364;2022-08-05T14:49:13;24.00;54.10
23691;DHT22;43867;50.836;4.364;2022-08-05T14:51:39;23.90;54.20
23691;DHT22;43867;50.836;4.364;2022-08-05T14:54:05;24.10;54.60
23691;DHT22;43867;50.836;4.364;2022-08-05T14:56:34;23.90;54.20
23691;DHT22;43867;50.836;4.364;2022-08-05T14:59:00;23.90;54.00
23691;DHT22;43867;50.836;4.364;2022-08-05T15:01:26;23.80;52.90
23691;DHT22;43867;50.836;4.364;2022-08-05T15:03:51;23.90;53.00
23691;DHT22;43867;50.836;4.364;2022-08-05T15:06:17;23.90;52.80
23691;DHT22;43867;50.836;4.364;2022-08-05T15:08:43;23.90;52.60
23691;DHT22;43867;50.836;4.364;2022-08-05T15:11:09;24.00;51.90
23691;DHT22;43867;50.836;4.364;2022-08-05T15:13:35;23.90;52.30
23691;DHT22;43867;50.836;4.364;2022-08-05T15:16:01;23.90;52.00
23691;DHT22;43867;50.836;4.364;2022-08-05T15:18:26;23.60;52.20
23691;DHT22;43867;50.836;4.364;2022-08-05T15:20:52;23.60;52.20
23691;DHT22;43867;50.836;4.364;2022-08-05T15:23:18;23.50;51.80
23691;DHT22;43867;50.836;4.364;2022-08-05T15:25:44;23.70;52.20
23691;DHT22;43867;50.836;4.364;2022-08-05T15:28:13;23.70;52.20
23691;DHT22;43867;50.836;4.364;2022-08-05T15:30:39;23.70;52.00
23691;DHT22;43867;50.836;4.364;2022-08-05T15:33:05;23.50;53.00
23691;DHT22;43867;50.836;4.364;2022-08-05T15:35:35;23.50;53.10
23691;DHT22;43867;50.836;4.364;2022-08-05T15:38:00;23.10;53.50
23691;DHT22;43867;50.836;4.364;2022-08-05T15:40:26;22.80;54.20
23691;DHT22;43867;50.836;4.364;2022-08-05T15:42:51;22.90;54.40
23691;DHT22;43867;50.836;4.364;2022-08-05T15:45:17;22.80;54.90
23691;DHT22;43867;50.836;4.364;2022-08-05T15:47:43;22.90;54.90
23691;DHT22;43867;50.836;4.364;2022-08-05T15:50:11;23.00;54.70
23691;DHT22;43867;50.836;4.364;2022-08-05T15:52:37;23.00;55.00
23691;DHT22;43867;50.836;4.364;2022-08-05T15:57:58;22.60;56.30
23691;DHT22;43867;50.836;4.364;2022-08-05T16:00:24;22.60;57.10
23691;DHT22;43867;50.836;4.364;2022-08-05T16:02:50;22.80;57.80
23691;DHT22;43867;50.836;4.364;2022-08-05T16:05:15;22.90;58.20
23691;DHT22;43867;50.836;4.364;2022-08-05T16:07:41;22.90;58.40
23691;DHT22;43867;50.836;4.364;2022-08-05T16:10:07;23.00;57.80